MV Melite — V7TM5 — position and weather

sailwx.info

Track history (hours):
 
Tides and Currents Weather Stations Pressure Air Temp Water Temp Dewpoint Dewpoint Depression Visibility Wind Speed Wind Dir Waves Ship Positions

MV Melite

Last reported at 2016-Feb-05 13:33 UTC. Time now 2016-Feb-11 19:13 UTC.
Position S 29°31' E 031°37'.

Length 225 m; draft 13.1 m.

Type: Cargo ship. MMSI: 538003832.

Date/timePositionNaut miles runAvg speedWind from/ knotsBaromVisibWave heightAir tempDewpointWater temp
2016-Feb-05 13:33S 29°31' E 031°37'1111.2
2016-Feb-05 12:33S 29°39' E 031°27'1211.7
2016-Feb-05 11:33S 29°47' E 031°18'7 7.2
2016-Feb-05 10:33S 29°51' E 031°11'2 2.4
2016-Feb-05 09:33S 29°52' E 031°09'0 0.5
2016-Feb-05 08:33S 29°51' E 031°09'1 0.9
2016-Feb-05 07:33S 29°50' E 031°09'1 0.7
2016-Feb-05 06:33S 29°51' E 031°09'5 5.1
2016-Feb-05 05:33S 29°56' E 031°09'9 8.7
2016-Feb-05 04:33S 30°05' E 031°09'226 9.7
2016-Feb-04 05:21S 32°59' E 028°21'14 6.6
2016-Feb-04 03:10S 33°09' E 028°08'11 6.2
2016-Feb-04 01:20S 33°16' E 027°58'8 7.1
2016-Feb-04 00:14S 33°20' E 027°50'6 8.5
2016-Feb-03 23:33S 33°23' E 027°44'21 9.3
2016-Feb-03 21:17S 33°34' E 027°22'12 9.9
2016-Feb-03 20:06S 33°40' E 027°10'610.0
2016-Feb-03 19:30S 33°43' E 027°04'34610.3
2016-Feb-02 10:05S 34°52' E 020°14'1010.2
2016-Feb-02 09:07S 34°56' E 020°03'6 9.6
2016-Feb-02 08:32S 34°58' E 019°56'14 9.8
2016-Feb-02 07:04S 34°56' E 019°39'810.5
2016-Feb-02 06:21S 34°54' E 019°30'910.7
2016-Feb-02 05:28S 34°53' E 019°19'16410.1
2016-Feb-01 13:19S 34°23' E 016°03'  
Track history (hours):
 
Tides and Currents Weather Stations Pressure Air Temp Water Temp Dewpoint Dewpoint Depression Visibility Wind Speed Wind Dir Waves Ship Positions

MV Melite

Last reported at 2016-Feb-05 13:33 UTC. Time now 2016-Feb-11 19:13 UTC.
Position S 29°31' E 031°37'.

Length 225 m; draft 13.1 m.

Type: Cargo ship. MMSI: 538003832.

Date/timePositionNaut miles runAvg speedWind from/ knotsBaromVisibWave heightAir tempDewpointWater temp
2016-Feb-05 13:33S 29°31' E 031°37'1111.2
2016-Feb-05 12:33S 29°39' E 031°27'1211.7
2016-Feb-05 11:33S 29°47' E 031°18'7 7.2
2016-Feb-05 10:33S 29°51' E 031°11'2 2.4
2016-Feb-05 09:33S 29°52' E 031°09'0 0.5
2016-Feb-05 08:33S 29°51' E 031°09'1 0.9
2016-Feb-05 07:33S 29°50' E 031°09'1 0.7
2016-Feb-05 06:33S 29°51' E 031°09'5 5.1
2016-Feb-05 05:33S 29°56' E 031°09'9 8.7
2016-Feb-05 04:33S 30°05' E 031°09'226 9.7
2016-Feb-04 05:21S 32°59' E 028°21'14 6.6
2016-Feb-04 03:10S 33°09' E 028°08'11 6.2
2016-Feb-04 01:20S 33°16' E 027°58'8 7.1
2016-Feb-04 00:14S 33°20' E 027°50'6 8.5
2016-Feb-03 23:33S 33°23' E 027°44'21 9.3
2016-Feb-03 21:17S 33°34' E 027°22'12 9.9
2016-Feb-03 20:06S 33°40' E 027°10'610.0
2016-Feb-03 19:30S 33°43' E 027°04'34610.3
2016-Feb-02 10:05S 34°52' E 020°14'1010.2
2016-Feb-02 09:07S 34°56' E 020°03'6 9.6
2016-Feb-02 08:32S 34°58' E 019°56'14 9.8
2016-Feb-02 07:04S 34°56' E 019°39'810.5
2016-Feb-02 06:21S 34°54' E 019°30'910.7
2016-Feb-02 05:28S 34°53' E 019°19'16410.1
2016-Feb-01 13:19S 34°23' E 016°03'  

Dump ship's entire track history